Aviation Digital Data Service (ADDS)

Output produced by METARs form (1210 UTC 15 November 2018)
found at http://www.aviationweather.gov/metar/data/
 
FKKD 151100Z VRB03KT 9999 BKN016 FEW020CB 31/25 Q1010 NOSIG
TAF FKKD 151100Z 1512/1618 VRB07KT 9999 BKN016 FEW020CB 
     PROB30 1512/1514 TS 
     TEMPO 1518/1606 TS BKN013 FEW016CB 
     PROB40 
     TEMPO 1518/1606 4000 TSRA
       
FKKR 151100Z 30003KT 9000 NSC 34/09 Q1010 NOSIG
TAF FKKR 150500Z 1506/1518 26006KT CAVOK
       
FKKN 151100Z 34004KT CAVOK 29/14 Q1015
FKYS 151100Z /////KT 7000 BKN020 28/22 Q1015 NOSIG
TAF FKYS 151100Z 1512/1612 VRB07KT 9999 BKN016 
     TEMPO 1515/1602 TS BKN010 FEW016CB 
     TEMPO 1517/1602 4000 TSRA 
     BECMG 1600/1602 2000 BR BKN006 FEW016CB 
     BECMG 1606/1608 BKN016